TAF KWJF
AMD KWJF 090832Z 0909/1006 24015KT P6SM BKN020 OVC030 FM091600 26025G30KT P6SM VCSH BKN035 FM092000 28028G38KT 4SM -RA BR BKN025 FM100400 28018G28KT P6SM SCT020=
METAR KWJF
KWJF 090956Z AUTO 25015KT 10SM OVC018 11/07 A2991 RMK AO2 SLP121 T01110072
KWJF 090856Z AUTO 25016G24KT 10SM BKN016 OVC024 11/08 A2992 RMK AO2 SLP124 T01110078 58010
KWJF 090756Z AUTO 24012KT 10SM BKN020 OVC024 11/08 A2993 RMK AO2 SLP128 T01110078 402000028
SPECI KWJF 090739Z AUTO 23011KT 10SM BKN020 11/08 A2993 RMK AO2 T01060078
KWJF 090656Z AUTO 25015KT 10SM FEW013 SCT019 11/08 A2995 RMK AO2 SLP137 T01060078
WC KWJF
WS KWJF
WV KWJF